Time;durP1;ratioP1;P1;durP2;ratioP2;P2;SDS_P1;SDS_P2;PMS_P1;PMS_P2;Temp;Humidity;BMP_temperature;BMP_pressure;BME280_temperature;BME280_humidity;BME280_pressure;Samples;Min_cycle;Max_cycle;Signal;HPM_P1;HPM_P2
2023/04/16 00:00:10;;;;;;;;;12.60;12.60;;;;;;;;5247728;28;8835;-69
2023/04/16 00:02:44;;;;;;;;;14.80;14.80;;;;;;;;5230679;28;8783;-69
2023/04/16 00:05:15;;;;;;;;;7.40;7.40;;;;;;;;5247345;28;8775;-69
2023/04/16 00:07:46;;;;;;;;;10.40;10.40;;;;;;;;5235362;28;8813;-68
2023/04/16 00:10:17;;;;;;;;;17.00;17.00;;;;;;;;5226602;28;8789;-69
2023/04/16 00:12:49;;;;;;;;;14.60;14.00;;;;;;;;5226136;28;11704;-68
2023/04/16 00:15:21;;;;;;;;;4.60;4.60;;;;;;;;5226877;28;9497;-69
2023/04/16 00:17:52;;;;;;;;;17.60;17.20;;;;;;;;5227483;28;8812;-69
2023/04/16 00:20:23;;;;;;;;;13.75;11.75;;;;;;;;5210074;28;8806;-69
2023/04/16 00:22:53;;;;;;;;;7.80;7.80;;;;;;;;5229989;28;11547;-67
2023/04/16 00:25:25;;;;;;;;;11.40;11.40;;;;;;;;5230923;28;8783;-68
2023/04/16 00:27:55;;;;;;;;;19.00;18.25;;;;;;;;5230184;28;8799;-68
2023/04/16 00:30:27;;;;;;;;;15.00;15.00;;;;;;;;5246821;28;10870;-67
2023/04/16 00:32:58;;;;;;;;;10.20;10.20;;;;;;;;5244979;28;8783;-69
2023/04/16 00:35:29;;;;;;;;;6.20;6.20;;;;;;;;5247831;28;8937;-67
2023/04/16 00:38:01;;;;;;;;;14.00;14.00;;;;;;;;5246882;28;8791;-67
2023/04/16 00:40:32;;;;;;;;;13.00;12.60;;;;;;;;5213438;28;8817;-67
2023/04/16 00:43:03;;;;;;;;;4.60;3.80;;;;;;;;5229885;28;8911;-67
2023/04/16 00:45:35;;;;;;;;;8.20;8.20;;;;;;;;5229845;28;8798;-68
2023/04/16 00:48:06;;;;;;;;;7.80;7.80;;;;;;;;5231950;28;9536;-68
2023/04/16 00:50:37;;;;;;;;;10.40;10.40;;;;;;;;5238091;28;8779;-67
2023/04/16 00:53:08;;;;;;;;;20.20;19.80;;;;;;;;5229503;28;8805;-67
2023/04/16 00:55:58;;;;;;;;;5.80;5.80;;;;;;;;5247621;28;8806;-68
2023/04/16 00:58:30;;;;;;;;;10.80;10.80;;;;;;;;5246770;28;8799;-67
2023/04/16 01:01:02;;;;;;;;;7.20;7.20;;;;;;;;5225716;28;8868;-67
2023/04/16 01:03:37;;;;;;;;;19.00;16.80;;;;;;;;5225549;28;8778;-67
2023/04/16 01:06:08;;;;;;;;;19.00;17.60;;;;;;;;5225446;28;8912;-68
2023/04/16 01:08:58;;;;;;;;;14.60;11.00;;;;;;;;5225326;28;8820;-68
2023/04/16 01:11:29;;;;;;;;;21.40;17.80;;;;;;;;5225514;28;8840;-67
2023/04/16 01:14:00;;;;;;;;;11.00;9.80;;;;;;;;5208844;28;8805;-68
2023/04/16 01:16:31;;;;;;;;;10.20;10.20;;;;;;;;5240480;28;8807;-68
2023/04/16 01:19:02;;;;;;;;;25.40;22.40;;;;;;;;5229178;28;8811;-68
2023/04/16 01:21:34;;;;;;;;;8.40;6.80;;;;;;;;5229199;28;8811;-67
2023/04/16 01:24:05;;;;;;;;;10.00;10.00;;;;;;;;5228966;28;8786;-67
2023/04/16 01:26:37;;;;;;;;;43.20;40.40;;;;;;;;5229560;28;8868;-68
2023/04/16 01:29:08;;;;;;;;;15.20;15.20;;;;;;;;5245834;28;8844;-68
2023/04/16 01:31:39;;;;;;;;;14.20;13.80;;;;;;;;5228758;28;8850;-68
2023/04/16 01:34:31;;;;;;;;;8.20;8.20;;;;;;;;5245389;28;8799;-68
2023/04/16 01:37:02;;;;;;;;;7.20;7.20;;;;;;;;5229214;28;8789;-68
2023/04/16 01:39:34;;;;;;;;;5.80;5.80;;;;;;;;5245358;28;8790;-68
2023/04/16 01:42:07;;;;;;;;;8.60;8.60;;;;;;;;5245497;28;8933;-67
2023/04/16 01:44:56;;;;;;;;;5.80;5.80;;;;;;;;5231558;28;8814;-68
2023/04/16 01:47:27;;;;;;;;;16.60;15.60;;;;;;;;5224458;28;8793;-68
2023/04/16 01:49:59;;;;;;;;;17.20;17.20;;;;;;;;5224464;28;9542;-67
2023/04/16 01:52:33;;;;;;;;;23.00;23.00;;;;;;;;5225506;28;8828;-68
2023/04/16 01:55:04;;;;;;;;;23.80;22.80;;;;;;;;5228511;28;8829;-67
2023/04/16 01:57:35;;;;;;;;;14.60;14.60;;;;;;;;5207982;28;8816;-67
2023/04/16 02:00:08;;;;;;;;;13.60;13.60;;;;;;;;5211958;28;8829;-67
2023/04/16 02:02:50;;;;;;;;;20.20;18.80;;;;;;;;5233802;28;8907;-68
2023/04/16 02:05:29;;;;;;;;;21.40;20.60;;;;;;;;5225797;28;8785;-67
2023/04/16 02:08:02;;;;;;;;;18.80;18.80;;;;;;;;5224548;28;8797;-68
2023/04/16 02:10:34;;;;;;;;;5.80;5.80;;;;;;;;5242269;28;9600;-68
2023/04/16 02:13:06;;;;;;;;;8.00;8.00;;;;;;;;5228491;28;8818;-68
2023/04/16 02:15:37;;;;;;;;;5.60;5.60;;;;;;;;5240571;28;8801;-68
2023/04/16 02:18:08;;;;;;;;;32.40;30.40;;;;;;;;5207540;28;8792;-68
2023/04/16 02:20:42;;;;;;;;;5.40;5.40;;;;;;;;5215109;28;8830;-68
2023/04/16 02:23:14;;;;;;;;;35.60;30.20;;;;;;;;5244939;28;8795;-68
2023/04/16 02:25:45;;;;;;;;;9.75;9.75;;;;;;;;5239535;28;8817;-67
2023/04/16 02:28:17;;;;;;;;;13.40;13.40;;;;;;;;5224447;28;10328;-68
2023/04/16 02:30:50;;;;;;;;;15.40;14.40;;;;;;;;5223987;28;8837;-67
2023/04/16 02:33:25;;;;;;;;;21.40;21.40;;;;;;;;5223908;28;8813;-67
2023/04/16 02:36:02;;;;;;;;;9.20;9.00;;;;;;;;5207603;28;8793;-67
2023/04/16 02:38:33;;;;;;;;;16.60;16.60;;;;;;;;5229159;28;8821;-68
2023/04/16 02:41:04;;;;;;;;;16.20;15.80;;;;;;;;5206872;28;8821;-68
2023/04/16 02:43:35;;;;;;;;;24.40;20.00;;;;;;;;5240630;28;8808;-67
2023/04/16 02:46:06;;;;;;;;;16.00;15.60;;;;;;;;5243274;28;9504;-68
2023/04/16 02:48:37;;;;;;;;;17.80;17.60;;;;;;;;5224906;28;8809;-68
2023/04/16 02:51:08;;;;;;;;;16.00;15.80;;;;;;;;5227890;28;8814;-68
2023/04/16 02:53:39;;;;;;;;;1.80;1.80;;;;;;;;5228128;28;8834;-67
2023/04/16 02:56:11;;;;;;;;;9.00;9.00;;;;;;;;5244845;28;8767;-68
2023/04/16 02:58:42;;;;;;;;;3.60;3.60;;;;;;;;5243281;28;8771;-69
2023/04/16 03:01:13;;;;;;;;;5.00;5.00;;;;;;;;5189958;28;8845;-68
2023/04/16 03:03:45;;;;;;;;;0.00;0.00;;;;;;;;5230212;28;8779;-69
2023/04/16 03:06:16;;;;;;;;;0.80;0.80;;;;;;;;5217153;28;9580;-68
2023/04/16 03:08:47;;;;;;;;;2.40;2.40;;;;;;;;5243491;28;8782;-69
2023/04/16 03:11:37;;;;;;;;;18.00;16.00;;;;;;;;5242476;28;8787;-69
2023/04/16 03:14:09;;;;;;;;;19.40;18.80;;;;;;;;5241375;28;8791;-68
2023/04/16 03:16:40;;;;;;;;;2.80;2.80;;;;;;;;5242850;28;8803;-68
2023/04/16 03:19:11;;;;;;;;;1.20;1.00;;;;;;;;5242692;28;8791;-68
2023/04/16 03:21:42;;;;;;;;;8.20;8.20;;;;;;;;5226689;28;8818;-68
2023/04/16 03:24:13;;;;;;;;;15.80;15.40;;;;;;;;5228980;28;9534;-69
2023/04/16 03:26:44;;;;;;;;;0.00;0.00;;;;;;;;5225141;28;8808;-69
2023/04/16 03:29:16;;;;;;;;;2.00;2.00;;;;;;;;5236389;28;8795;-69
2023/04/16 03:31:47;;;;;;;;;4.60;4.60;;;;;;;;5225245;28;8813;-68
2023/04/16 03:34:18;;;;;;;;;1.40;1.40;;;;;;;;5209465;28;8822;-68
2023/04/16 03:36:50;;;;;;;;;1.40;1.40;;;;;;;;5208718;28;8821;-68
2023/04/16 03:39:21;;;;;;;;;1.20;1.20;;;;;;;;5226300;28;8805;-70
2023/04/16 03:41:52;;;;;;;;;6.20;5.40;;;;;;;;5216882;28;8845;-69
2023/04/16 03:44:24;;;;;;;;;8.80;8.80;;;;;;;;5232420;28;8802;-69
2023/04/16 03:47:13;;;;;;;;;9.80;9.80;;;;;;;;5226720;28;8765;-70
2023/04/16 03:49:44;;;;;;;;;5.20;5.20;;;;;;;;5228447;28;8791;-69
2023/04/16 03:52:16;;;;;;;;;0.00;0.00;;;;;;;;5231328;28;8764;-69
2023/04/16 03:54:47;;;;;;;;;0.00;0.00;;;;;;;;5247280;28;8875;-69
2023/04/16 03:57:29;;;;;;;;;0.00;0.00;;;;;;;;5226669;28;8815;-69
2023/04/16 04:00:06;;;;;;;;;0.00;0.00;;;;;;;;5232758;28;8826;-69
2023/04/16 04:03:07;;;;;;;;;2.00;2.00;;;;;;;;5219798;28;8809;-69
2023/04/16 04:05:40;;;;;;;;;3.20;3.20;;;;;;;;5228846;28;9529;-69
2023/04/16 04:08:13;;;;;;;;;2.40;2.00;;;;;;;;5240168;28;8810;-69
2023/04/16 04:10:45;;;;;;;;;1.40;1.40;;;;;;;;5230577;28;8805;-68
2023/04/16 04:13:18;;;;;;;;;8.00;8.00;;;;;;;;5247090;28;8917;-68
2023/04/16 04:15:49;;;;;;;;;2.00;2.00;;;;;;;;5247054;28;8779;-69
2023/04/16 04:18:39;;;;;;;;;1.40;1.40;;;;;;;;5237753;28;8833;-70
2023/04/16 04:21:11;;;;;;;;;4.00;4.00;;;;;;;;5225239;28;8849;-69
2023/04/16 04:23:43;;;;;;;;;10.40;10.40;;;;;;;;5218959;28;8906;-69
2023/04/16 04:26:32;;;;;;;;;1.00;1.00;;;;;;;;5227309;28;8794;-68
2023/04/16 04:29:03;;;;;;;;;6.00;6.00;;;;;;;;5246631;28;8803;-69
2023/04/16 04:31:34;;;;;;;;;2.00;2.00;;;;;;;;5230248;28;8845;-70
2023/04/16 04:34:06;;;;;;;;;1.80;1.80;;;;;;;;5229610;28;8998;-68
2023/04/16 04:36:38;;;;;;;;;0.00;0.00;;;;;;;;5248944;28;8808;-68
2023/04/16 04:39:09;;;;;;;;;0.00;0.00;;;;;;;;5238907;28;8828;-71
2023/04/16 04:41:41;;;;;;;;;2.80;2.80;;;;;;;;5235610;28;8833;-72
2023/04/16 04:44:12;;;;;;;;;5.20;5.20;;;;;;;;5226507;28;8833;-72
2023/04/16 04:46:43;;;;;;;;;0.00;0.00;;;;;;;;5220679;28;8817;-71
2023/04/16 04:49:15;;;;;;;;;1.00;1.00;;;;;;;;5207541;28;8938;-70
2023/04/16 04:51:46;;;;;;;;;1.20;1.20;;;;;;;;5206917;28;8817;-71
2023/04/16 04:54:17;;;;;;;;;0.60;0.60;;;;;;;;5207097;28;8806;-72
2023/04/16 04:56:51;;;;;;;;;1.00;1.00;;;;;;;;5226351;28;8907;-71
2023/04/16 04:59:22;;;;;;;;;0.00;0.00;;;;;;;;5223736;28;8814;-72
2023/04/16 05:01:54;;;;;;;;;2.00;2.00;;;;;;;;5224968;28;8825;-72
2023/04/16 05:04:25;;;;;;;;;4.80;4.80;;;;;;;;5206787;28;8961;-72
2023/04/16 05:06:56;;;;;;;;;0.00;0.00;;;;;;;;5232326;28;8787;-72
2023/04/16 05:09:28;;;;;;;;;6.60;6.60;;;;;;;;5231845;28;9532;-73
2023/04/16 05:11:59;;;;;;;;;0.40;0.40;;;;;;;;5191982;28;8797;-72
2023/04/16 05:14:30;;;;;;;;;1.00;1.00;;;;;;;;5224393;28;8817;-72
2023/04/16 05:17:20;;;;;;;;;1.00;1.00;;;;;;;;5209440;28;8814;-72
2023/04/16 05:19:51;;;;;;;;;5.00;5.00;;;;;;;;5207983;28;9551;-73
2023/04/16 05:22:22;;;;;;;;;12.60;12.60;;;;;;;;5206201;28;8915;-73
2023/04/16 05:24:53;;;;;;;;;0.00;0.00;;;;;;;;5215734;28;9614;-73
2023/04/16 05:27:24;;;;;;;;;1.80;1.80;;;;;;;;5226300;28;8862;-72
2023/04/16 05:29:55;;;;;;;;;5.80;5.80;;;;;;;;5225142;28;8799;-73
2023/04/16 05:32:26;;;;;;;;;0.00;0.00;;;;;;;;5220215;28;8786;-73
2023/04/16 05:34:57;;;;;;;;;2.00;1.20;;;;;;;;5236268;28;8826;-72
2023/04/16 05:37:29;;;;;;;;;0.80;0.80;;;;;;;;5217924;28;8809;-77
2023/04/16 05:40:00;;;;;;;;;1.60;1.60;;;;;;;;5222878;28;9721;-80
2023/04/16 05:42:32;;;;;;;;;0.00;0.00;;;;;;;;5204790;28;8789;-76
2023/04/16 05:45:03;;;;;;;;;8.25;8.25;;;;;;;;5234423;28;9684;-75
2023/04/16 05:47:35;;;;;;;;;4.80;4.80;;;;;;;;5210098;28;10807;-75
2023/04/16 05:50:07;;;;;;;;;1.00;1.00;;;;;;;;5207749;28;8797;-74
2023/04/16 05:52:38;;;;;;;;;11.40;11.40;;;;;;;;5223451;28;8753;-75
2023/04/16 05:55:09;;;;;;;;;6.20;6.20;;;;;;;;5211509;28;8837;-73
2023/04/16 05:57:40;;;;;;;;;7.40;7.40;;;;;;;;5223486;28;8837;-74
2023/04/16 06:00:11;;;;;;;;;16.80;16.80;;;;;;;;5206737;28;8813;-72
2023/04/16 06:03:01;;;;;;;;;3.40;3.40;;;;;;;;5223161;28;8840;-73
2023/04/16 06:05:33;;;;;;;;;5.00;3.40;;;;;;;;5235293;28;8791;-73
2023/04/16 06:08:04;;;;;;;;;14.20;14.20;;;;;;;;5224876;28;8813;-73
2023/04/16 06:10:35;;;;;;;;;9.40;9.40;;;;;;;;5206560;28;8843;-75
2023/04/16 06:13:06;;;;;;;;;1.00;1.00;;;;;;;;5227223;28;8871;-74
2023/04/16 06:15:37;;;;;;;;;5.60;5.60;;;;;;;;5224339;28;8801;-74
2023/04/16 06:18:08;;;;;;;;;9.00;9.00;;;;;;;;5226643;28;8794;-71
2023/04/16 06:20:39;;;;;;;;;24.20;24.20;;;;;;;;5243849;28;10944;-70
2023/04/16 06:23:10;;;;;;;;;35.80;32.20;;;;;;;;5205832;28;8829;-73
2023/04/16 06:25:41;;;;;;;;;10.00;10.00;;;;;;;;5207851;28;8798;-72
2023/04/16 06:28:12;;;;;;;;;3.40;3.40;;;;;;;;5207866;28;8789;-72
2023/04/16 06:30:43;;;;;;;;;2.00;1.40;;;;;;;;5224119;28;9543;-72
2023/04/16 06:33:14;;;;;;;;;1.00;1.00;;;;;;;;5225001;28;8797;-72
2023/04/16 06:35:45;;;;;;;;;6.50;6.50;;;;;;;;5207783;28;8800;-72
2023/04/16 06:38:15;;;;;;;;;16.25;16.00;;;;;;;;5224071;28;8786;-72
2023/04/16 06:40:47;;;;;;;;;9.20;9.20;;;;;;;;5223989;28;11516;-73
2023/04/16 06:43:18;;;;;;;;;2.60;2.60;;;;;;;;5224471;28;9570;-72
2023/04/16 06:45:50;;;;;;;;;0.20;0.20;;;;;;;;5224077;28;8804;-72
2023/04/16 06:48:21;;;;;;;;;1.00;1.00;;;;;;;;5207523;28;9606;-73
2023/04/16 06:50:52;;;;;;;;;2.00;2.00;;;;;;;;5207408;28;8790;-73
2023/04/16 06:53:23;;;;;;;;;10.00;10.00;;;;;;;;5224403;28;8790;-72
2023/04/16 06:55:54;;;;;;;;;19.20;19.20;;;;;;;;5223682;28;8801;-72
2023/04/16 06:58:26;;;;;;;;;13.80;13.80;;;;;;;;5211097;28;9540;-72
2023/04/16 07:00:57;;;;;;;;;5.00;5.00;;;;;;;;5227703;28;8925;-73
2023/04/16 07:03:28;;;;;;;;;10.60;10.60;;;;;;;;5211326;28;8798;-73
2023/04/16 07:06:00;;;;;;;;;4.20;4.20;;;;;;;;5228124;28;8790;-72
2023/04/16 07:08:31;;;;;;;;;3.00;3.00;;;;;;;;5211693;28;8813;-72
2023/04/16 07:11:02;;;;;;;;;7.60;6.60;;;;;;;;5210927;28;8806;-72
2023/04/16 07:13:33;;;;;;;;;2.00;2.00;;;;;;;;5227230;28;9540;-72
2023/04/16 07:16:04;;;;;;;;;6.00;6.00;;;;;;;;5210757;28;11485;-72
2023/04/16 07:18:35;;;;;;;;;2.00;2.00;;;;;;;;5229159;28;11420;-72
2023/04/16 07:21:06;;;;;;;;;0.00;0.00;;;;;;;;5210905;28;8844;-72
2023/04/16 07:23:37;;;;;;;;;1.00;1.00;;;;;;;;5227344;28;8793;-72
2023/04/16 07:26:10;;;;;;;;;1.00;1.00;;;;;;;;5228799;28;9481;-72
2023/04/16 07:28:41;;;;;;;;;1.20;1.20;;;;;;;;5227529;28;8824;-72
2023/04/16 07:31:30;;;;;;;;;13.20;12.40;;;;;;;;5227500;28;8968;-72
2023/04/16 07:34:01;;;;;;;;;2.00;2.00;;;;;;;;5226915;28;8951;-72
2023/04/16 07:36:51;;;;;;;;;14.00;10.40;;;;;;;;5227400;28;12184;-72
2023/04/16 07:39:22;;;;;;;;;5.25;5.25;;;;;;;;5228317;28;8871;-72
2023/04/16 07:41:55;;;;;;;;;1.60;1.60;;;;;;;;5227173;28;11449;-72
2023/04/16 07:44:29;;;;;;;;;0.60;0.60;;;;;;;;5227276;28;8782;-71
2023/04/16 07:47:00;;;;;;;;;1.60;1.60;;;;;;;;5210455;28;9536;-70
2023/04/16 07:49:31;;;;;;;;;15.25;15.25;;;;;;;;5210131;28;8805;-71
2023/04/16 07:52:03;;;;;;;;;2.80;2.80;;;;;;;;5226949;28;9420;-71
2023/04/16 07:54:34;;;;;;;;;0.20;0.20;;;;;;;;5226662;28;8809;-71
2023/04/16 07:57:05;;;;;;;;;1.80;1.80;;;;;;;;5226740;28;8758;-71
2023/04/16 07:59:36;;;;;;;;;7.00;7.00;;;;;;;;5226975;28;8781;-71
2023/04/16 08:02:09;;;;;;;;;6.20;6.20;;;;;;;;5226805;28;8805;-71
2023/04/16 08:04:41;;;;;;;;;2.00;2.00;;;;;;;;5228191;28;9524;-71
2023/04/16 08:07:12;;;;;;;;;4.00;4.00;;;;;;;;5226580;28;8788;-71
2023/04/16 08:09:47;;;;;;;;;8.80;8.00;;;;;;;;5225534;28;8782;-71
2023/04/16 08:12:18;;;;;;;;;6.00;5.20;;;;;;;;5226947;28;8805;-71
2023/04/16 08:14:49;;;;;;;;;2.80;2.80;;;;;;;;5226388;28;8790;-71
2023/04/16 08:17:20;;;;;;;;;2.40;2.40;;;;;;;;5226234;28;9592;-71
2023/04/16 08:19:51;;;;;;;;;16.00;13.50;;;;;;;;5226115;28;8916;-71
2023/04/16 08:22:22;;;;;;;;;1.00;1.00;;;;;;;;5226577;28;8800;-71
2023/04/16 08:24:53;;;;;;;;;2.25;2.25;;;;;;;;5209513;28;8782;-70
2023/04/16 08:27:24;;;;;;;;;2.00;2.00;;;;;;;;5227301;28;8790;-71
2023/04/16 08:29:55;;;;;;;;;7.60;7.60;;;;;;;;5227497;28;8782;-71
2023/04/16 08:32:26;;;;;;;;;1.20;1.20;;;;;;;;5226109;28;8794;-71
2023/04/16 08:34:57;;;;;;;;;3.00;3.00;;;;;;;;5225842;28;8802;-71
2023/04/16 08:37:28;;;;;;;;;3.75;3.75;;;;;;;;5226089;28;8830;-71
2023/04/16 08:39:59;;;;;;;;;17.00;17.00;;;;;;;;5225918;28;9283;-70
2023/04/16 08:42:32;;;;;;;;;8.00;6.40;;;;;;;;5227109;28;9647;-71
2023/04/16 08:45:13;;;;;;;;;3.00;3.00;;;;;;;;5226968;28;8770;-71
2023/04/16 08:47:49;;;;;;;;;6.80;6.80;;;;;;;;5226190;28;8967;-71
2023/04/16 08:50:24;;;;;;;;;4.80;4.80;;;;;;;;5209583;28;8818;-71
2023/04/16 08:52:57;;;;;;;;;14.80;14.80;;;;;;;;5225633;28;8777;-71
2023/04/16 08:55:35;;;;;;;;;4.80;4.80;;;;;;;;5226717;28;8813;-70
2023/04/16 08:58:15;;;;;;;;;2.00;2.00;;;;;;;;5209551;28;8819;-72
2023/04/16 09:00:46;;;;;;;;;4.00;4.00;;;;;;;;5225637;28;8967;-72
2023/04/16 09:03:20;;;;;;;;;1.00;1.00;;;;;;;;5226678;28;8781;-72
2023/04/16 09:05:52;;;;;;;;;0.40;0.40;;;;;;;;5208892;28;8911;-72
2023/04/16 09:08:24;;;;;;;;;2.80;2.80;;;;;;;;5226661;28;8777;-72
2023/04/16 09:10:56;;;;;;;;;1.00;1.00;;;;;;;;5208697;28;8797;-72
2023/04/16 09:13:27;;;;;;;;;0.00;0.00;;;;;;;;5226663;28;8778;-72
2023/04/16 09:15:58;;;;;;;;;6.20;6.20;;;;;;;;5226411;28;9587;-72
2023/04/16 09:18:30;;;;;;;;;6.60;6.60;;;;;;;;5225173;28;8816;-72
2023/04/16 09:21:01;;;;;;;;;1.00;1.00;;;;;;;;5208510;28;8832;-72
2023/04/16 09:23:32;;;;;;;;;7.60;7.60;;;;;;;;5226223;28;8800;-72
2023/04/16 09:26:04;;;;;;;;;2.00;2.00;;;;;;;;5224926;28;8778;-70
2023/04/16 09:28:45;;;;;;;;;0.80;0.80;;;;;;;;5225077;28;9582;-70
2023/04/16 09:31:17;;;;;;;;;1.00;1.00;;;;;;;;5225635;28;9501;-70
2023/04/16 09:34:00;;;;;;;;;3.00;3.00;;;;;;;;5224651;28;9660;-70
2023/04/16 09:36:32;;;;;;;;;0.60;0.60;;;;;;;;5226143;28;8821;-70
2023/04/16 09:39:03;;;;;;;;;0.00;0.00;;;;;;;;5224743;28;8797;-70
2023/04/16 09:41:34;;;;;;;;;28.60;28.60;;;;;;;;5208119;28;8817;-70
2023/04/16 09:44:05;;;;;;;;;17.20;17.20;;;;;;;;5225019;28;8781;-70
2023/04/16 09:47:04;;;;;;;;;1.20;1.20;;;;;;;;5224987;28;8782;-70
2023/04/16 09:49:40;;;;;;;;;2.00;2.00;;;;;;;;5224699;28;8821;-70
2023/04/16 09:52:29;;;;;;;;;2.00;1.80;;;;;;;;5225648;28;8762;-70
2023/04/16 09:55:22;;;;;;;;;0.80;0.80;;;;;;;;5225892;28;8934;-70
2023/04/16 09:58:00;;;;;;;;;5.80;5.80;;;;;;;;5224346;28;8797;-70
2023/04/16 10:00:31;;;;;;;;;0.00;0.00;;;;;;;;5208092;28;8817;-71
2023/04/16 10:03:03;;;;;;;;;2.40;2.40;;;;;;;;5208023;28;8798;-71
2023/04/16 10:05:34;;;;;;;;;1.00;1.00;;;;;;;;5207805;28;8831;-71
2023/04/16 10:08:15;;;;;;;;;0.00;0.00;;;;;;;;5224619;28;8781;-71
2023/04/16 10:10:46;;;;;;;;;4.00;4.00;;;;;;;;5224519;28;8777;-71
2023/04/16 10:13:18;;;;;;;;;1.00;1.00;;;;;;;;5224204;28;8858;-71
2023/04/16 10:15:49;;;;;;;;;1.60;1.60;;;;;;;;5224640;28;8940;-71
2023/04/16 10:18:20;;;;;;;;;2.60;2.60;;;;;;;;5224357;28;8807;-71
2023/04/16 10:20:51;;;;;;;;;0.60;0.60;;;;;;;;5207702;28;8829;-71
2023/04/16 10:23:22;;;;;;;;;3.00;3.00;;;;;;;;5224190;28;8796;-71
2023/04/16 10:26:12;;;;;;;;;4.00;4.00;;;;;;;;5224787;28;8789;-71
2023/04/16 10:28:44;;;;;;;;;5.20;5.20;;;;;;;;5207868;28;8766;-71
2023/04/16 10:31:15;;;;;;;;;12.00;12.00;;;;;;;;5225530;28;8882;-72
2023/04/16 10:33:46;;;;;;;;;9.60;9.60;;;;;;;;5228278;28;9526;-71
2023/04/16 10:36:22;;;;;;;;;3.00;3.00;;;;;;;;5228419;28;8797;-71
2023/04/16 10:38:57;;;;;;;;;1.80;1.80;;;;;;;;5228501;28;9627;-72
2023/04/16 10:41:31;;;;;;;;;3.60;3.60;;;;;;;;5228219;28;8951;-71
2023/04/16 10:44:23;;;;;;;;;8.00;8.00;;;;;;;;5228257;28;8852;-71
2023/04/16 10:46:54;;;;;;;;;0.00;0.00;;;;;;;;5228181;28;8777;-71
2023/04/16 10:49:25;;;;;;;;;0.00;0.00;;;;;;;;5229279;28;8782;-71
2023/04/16 10:52:19;;;;;;;;;1.20;1.20;;;;;;;;5214042;28;9144;-71
2023/04/16 10:54:51;;;;;;;;;0.80;0.80;;;;;;;;5227978;28;8817;-71
2023/04/16 10:57:22;;;;;;;;;2.00;2.00;;;;;;;;5227890;28;8790;-71
2023/04/16 10:59:53;;;;;;;;;0.00;0.00;;;;;;;;5211280;28;8816;-71
2023/04/16 11:02:27;;;;;;;;;1.00;1.00;;;;;;;;5229142;28;8874;-71
2023/04/16 11:05:00;;;;;;;;;0.00;0.00;;;;;;;;5228176;28;8866;-72
2023/04/16 11:07:34;;;;;;;;;0.00;0.00;;;;;;;;5229242;28;8821;-71
2023/04/16 11:10:06;;;;;;;;;50.60;37.60;;;;;;;;5229024;28;8810;-71
2023/04/16 11:12:41;;;;;;;;;1.00;1.00;;;;;;;;5227835;28;9550;-71
2023/04/16 11:15:14;;;;;;;;;4.00;4.00;;;;;;;;5228593;28;8809;-71
2023/04/16 11:17:46;;;;;;;;;1.00;1.00;;;;;;;;5229264;28;8794;-71
2023/04/16 11:20:17;;;;;;;;;5.20;5.20;;;;;;;;5227386;28;8824;-71
2023/04/16 11:22:49;;;;;;;;;1.75;1.75;;;;;;;;5228724;28;8778;-72
2023/04/16 11:25:21;;;;;;;;;1.00;1.00;;;;;;;;5210684;28;9525;-72
2023/04/16 11:27:53;;;;;;;;;0.00;0.00;;;;;;;;5228695;28;8789;-71
2023/04/16 11:30:28;;;;;;;;;1.00;1.00;;;;;;;;5228416;28;8912;-72
2023/04/16 11:33:12;;;;;;;;;5.00;5.00;;;;;;;;5227014;28;8808;-72
2023/04/16 11:35:44;;;;;;;;;2.20;2.20;;;;;;;;5210614;28;8794;-72
2023/04/16 11:38:17;;;;;;;;;2.80;2.20;;;;;;;;5226936;28;8781;-72
2023/04/16 11:40:50;;;;;;;;;1.00;1.00;;;;;;;;5210883;28;8825;-72
2023/04/16 11:43:39;;;;;;;;;3.00;3.00;;;;;;;;5226806;28;8816;-72
2023/04/16 11:46:10;;;;;;;;;0.00;0.00;;;;;;;;5228330;28;8794;-72
2023/04/16 11:48:45;;;;;;;;;2.40;2.40;;;;;;;;5227745;28;8790;-72
2023/04/16 11:51:17;;;;;;;;;1.00;1.00;;;;;;;;5228323;28;8844;-72
2023/04/16 11:53:49;;;;;;;;;3.60;3.60;;;;;;;;5228077;28;8809;-72
2023/04/16 11:56:28;;;;;;;;;11.40;11.40;;;;;;;;5226762;28;8774;-71
2023/04/16 11:59:07;;;;;;;;;4.60;4.60;;;;;;;;5193766;28;8808;-72
2023/04/16 12:01:38;;;;;;;;;1.20;1.20;;;;;;;;5227981;28;8888;-72
2023/04/16 12:04:10;;;;;;;;;24.60;23.40;;;;;;;;5228000;28;8786;-72
2023/04/16 12:07:00;;;;;;;;;2.20;2.00;;;;;;;;5226460;28;8790;-72
2023/04/16 12:09:33;;;;;;;;;3.00;3.00;;;;;;;;5210359;28;8842;-72
2023/04/16 12:12:04;;;;;;;;;2.20;2.20;;;;;;;;5226488;28;8794;-72
2023/04/16 12:14:35;;;;;;;;;1.60;1.60;;;;;;;;5227678;28;8796;-72
2023/04/16 12:17:19;;;;;;;;;0.80;0.80;;;;;;;;5209735;28;8781;-72
2023/04/16 12:20:01;;;;;;;;;2.00;2.00;;;;;;;;5226570;28;8808;-71
2023/04/16 12:22:51;;;;;;;;;3.80;3.80;;;;;;;;5226588;28;8801;-71
2023/04/16 12:25:41;;;;;;;;;8.40;8.40;;;;;;;;5226350;28;8793;-72
2023/04/16 12:28:32;;;;;;;;;12.20;12.20;;;;;;;;5226497;28;8774;-72
2023/04/16 12:31:03;;;;;;;;;4.00;4.00;;;;;;;;5209946;28;8789;-71
2023/04/16 12:34:02;;;;;;;;;3.80;3.80;;;;;;;;5211800;28;8821;-72
2023/04/16 12:36:35;;;;;;;;;8.00;8.00;;;;;;;;5226516;28;9476;-72
2023/04/16 12:39:07;;;;;;;;;2.00;2.00;;;;;;;;5227060;28;9485;-72
2023/04/16 12:41:39;;;;;;;;;7.60;7.60;;;;;;;;5209303;28;8821;-71
2023/04/16 12:44:11;;;;;;;;;5.80;5.80;;;;;;;;5226075;28;8804;-72
2023/04/16 12:46:42;;;;;;;;;1.80;1.80;;;;;;;;5225830;28;8804;-72
2023/04/16 12:49:13;;;;;;;;;2.00;2.00;;;;;;;;5227012;28;8793;-72
2023/04/16 12:51:45;;;;;;;;;1.50;1.50;;;;;;;;5225619;28;8793;-71
2023/04/16 12:54:16;;;;;;;;;2.60;2.60;;;;;;;;5226335;28;8813;-72
2023/04/16 12:56:47;;;;;;;;;6.00;6.00;;;;;;;;5209041;28;8777;-72
2023/04/16 12:59:18;;;;;;;;;1.25;1.25;;;;;;;;5225488;28;8794;-72
2023/04/16 13:01:49;;;;;;;;;2.75;2.75;;;;;;;;5227169;28;11458;-72
2023/04/16 13:04:20;;;;;;;;;2.20;2.20;;;;;;;;5229149;28;8806;-71
2023/04/16 13:06:51;;;;;;;;;1.00;1.00;;;;;;;;5235576;28;8920;-77
2023/04/16 13:09:22;;;;;;;;;12.60;12.40;;;;;;;;5229141;28;8860;-71
2023/04/16 13:11:53;;;;;;;;;8.80;8.80;;;;;;;;5229413;28;8791;-71
2023/04/16 13:14:28;;;;;;;;;2.60;2.60;;;;;;;;5227861;28;8848;-73
2023/04/16 13:16:59;;;;;;;;;6.20;6.20;;;;;;;;5210482;28;8781;-72
2023/04/16 13:19:30;;;;;;;;;1.00;1.00;;;;;;;;5245620;28;8810;-73
2023/04/16 13:22:01;;;;;;;;;6.40;6.40;;;;;;;;5228916;28;8818;-75
2023/04/16 13:24:32;;;;;;;;;4.00;4.00;;;;;;;;5229409;28;8775;-72
2023/04/16 13:27:03;;;;;;;;;6.40;6.20;;;;;;;;5226465;28;11446;-71
2023/04/16 13:29:37;;;;;;;;;6.80;6.80;;;;;;;;5224947;28;8939;-72
2023/04/16 13:32:08;;;;;;;;;9.00;8.60;;;;;;;;5224997;28;8786;-72
2023/04/16 13:34:39;;;;;;;;;25.40;25.40;;;;;;;;5224523;28;8963;-72
2023/04/16 13:37:10;;;;;;;;;59.00;49.00;;;;;;;;5224706;28;8797;-70
2023/04/16 13:39:41;;;;;;;;;64.00;53.00;;;;;;;;5231152;28;8799;-71
2023/04/16 13:42:12;;;;;;;;;15.20;15.00;;;;;;;;5244989;28;10830;-72
2023/04/16 13:44:47;;;;;;;;;3.80;3.80;;;;;;;;5240933;28;8804;-72
2023/04/16 13:47:18;;;;;;;;;11.00;10.60;;;;;;;;5238391;28;8964;-71
2023/04/16 13:49:49;;;;;;;;;4.00;4.00;;;;;;;;5226030;28;8908;-70
2023/04/16 13:52:20;;;;;;;;;4.20;4.20;;;;;;;;5221519;28;8820;-71
2023/04/16 13:54:51;;;;;;;;;2.80;2.60;;;;;;;;5207657;28;8794;-71
2023/04/16 13:57:25;;;;;;;;;3.20;3.20;;;;;;;;5225364;28;8835;-71
2023/04/16 13:59:56;;;;;;;;;4.40;4.40;;;;;;;;5241067;28;8779;-71
2023/04/16 14:02:27;;;;;;;;;3.20;2.80;;;;;;;;5223078;28;8730;-70
2023/04/16 14:04:58;;;;;;;;;7.25;7.25;;;;;;;;5207620;28;8982;-70
2023/04/16 14:07:29;;;;;;;;;2.00;2.00;;;;;;;;5223169;28;11450;-70
2023/04/16 14:10:00;;;;;;;;;12.80;12.80;;;;;;;;5207981;28;8802;-70
2023/04/16 14:12:31;;;;;;;;;3.00;3.00;;;;;;;;5229591;28;8768;-72
2023/04/16 14:15:04;;;;;;;;;8.20;8.20;;;;;;;;5227994;28;8825;-72
2023/04/16 14:17:38;;;;;;;;;7.00;7.00;;;;;;;;5244789;28;8751;-70
2023/04/16 14:20:10;;;;;;;;;14.00;14.00;;;;;;;;5225683;28;8787;-71
2023/04/16 14:22:42;;;;;;;;;36.00;32.40;;;;;;;;5207219;28;9555;-71
2023/04/16 14:25:13;;;;;;;;;18.80;18.80;;;;;;;;5223771;28;8770;-71
2023/04/16 14:27:44;;;;;;;;;8.50;8.50;;;;;;;;5226275;28;8774;-72
2023/04/16 14:30:15;;;;;;;;;7.75;7.75;;;;;;;;5226459;28;8863;-71
2023/04/16 14:32:46;;;;;;;;;8.50;7.75;;;;;;;;5224843;28;8786;-71
2023/04/16 14:35:17;;;;;;;;;15.67;15.67;;;;;;;;5223569;28;8814;-71
2023/04/16 14:37:48;;;;;;;;;10.50;10.50;;;;;;;;5224667;28;11446;-72
2023/04/16 14:40:20;;;;;;;;;17.75;17.25;;;;;;;;5234239;28;8819;-72
2023/04/16 14:42:51;;;;;;;;;8.75;8.75;;;;;;;;5223870;28;8810;-71
2023/04/16 14:45:24;;;;;;;;;3.33;3.33;;;;;;;;5207111;28;8813;-71
2023/04/16 14:47:55;;;;;;;;;19.40;19.40;;;;;;;;5227755;28;9329;-71
2023/04/16 14:50:26;;;;;;;;;9.75;9.75;;;;;;;;5226957;28;9535;-72
2023/04/16 14:52:57;;;;;;;;;11.00;11.00;;;;;;;;5228486;28;9513;-71
2023/04/16 14:55:28;;;;;;;;;10.00;9.50;;;;;;;;5239992;28;8837;-71
2023/04/16 14:58:00;;;;;;;;;24.60;24.00;;;;;;;;5223293;28;8801;-70
2023/04/16 15:00:31;;;;;;;;;20.20;20.20;;;;;;;;5224986;28;8793;-71
2023/04/16 15:03:03;;;;;;;;;17.00;17.00;;;;;;;;5224605;28;9532;-71
2023/04/16 15:05:55;;;;;;;;;14.50;14.50;;;;;;;;5225010;28;8797;-71
2023/04/16 15:08:26;;;;;;;;;122.25;119.75;;;;;;;;5206526;28;8814;-74
2023/04/16 15:10:57;;;;;;;;;15.50;15.50;;;;;;;;5223653;28;8817;-72
2023/04/16 15:13:47;;;;;;;;;12.75;12.75;;;;;;;;5242328;28;8779;-71
2023/04/16 15:16:36;;;;;;;;;10.25;10.25;;;;;;;;5240994;28;8810;-71
2023/04/16 15:19:07;;;;;;;;;11.40;10.80;;;;;;;;5228894;28;8802;-71
2023/04/16 15:21:38;;;;;;;;;14.60;14.60;;;;;;;;5246350;28;8842;-71
2023/04/16 15:24:09;;;;;;;;;16.25;15.50;;;;;;;;5247198;28;8872;-71